createdAt,value
2023-03-27T00:01:05.068Z,9.50
2023-03-27T00:03:32.163Z,9.50
2023-03-27T00:06:09.295Z,9.70
2023-03-27T00:08:36.599Z,9.70
2023-03-27T00:11:04.057Z,9.60
2023-03-27T00:13:31.072Z,9.40
2023-03-27T00:15:58.990Z,9.30
2023-03-27T00:18:26.594Z,9.20
2023-03-27T00:20:54.150Z,9.30
2023-03-27T00:23:21.170Z,9.30
2023-03-27T00:25:49.203Z,9.20
2023-03-27T00:28:17.780Z,9.20
2023-03-27T00:30:45.207Z,9.30
2023-03-27T00:33:16.125Z,9.40
2023-03-27T00:35:47.120Z,9.40
2023-03-27T00:38:14.401Z,9.30
2023-03-27T00:40:42.204Z,9.20
2023-03-27T00:43:32.587Z,9.00
2023-03-27T00:46:20.141Z,9.00
2023-03-27T00:48:48.309Z,8.90
2023-03-27T00:51:15.791Z,8.90
2023-03-27T00:53:42.749Z,8.90
2023-03-27T00:56:09.775Z,8.80
2023-03-27T00:58:45.862Z,8.60
2023-03-27T01:01:14.769Z,8.50
2023-03-27T01:03:42.834Z,8.30
2023-03-27T01:06:10.043Z,8.20
2023-03-27T01:08:36.940Z,8.20
2023-03-27T01:11:09.577Z,8.30
2023-03-27T01:14:19.766Z,8.30
2023-03-27T01:17:20.293Z,8.40
2023-03-27T01:19:47.229Z,8.40
2023-03-27T01:22:57.987Z,8.00
2023-03-27T01:26:14.565Z,8.30
2023-03-27T01:29:07.578Z,8.20
2023-03-27T01:32:02.444Z,7.90
2023-03-27T01:35:08.656Z,8.00
2023-03-27T01:38:13.162Z,7.90
2023-03-27T01:40:47.392Z,7.90
2023-03-27T01:43:23.575Z,7.90
2023-03-27T01:46:07.317Z,7.60
2023-03-27T01:48:44.970Z,7.40
2023-03-27T01:51:40.129Z,7.30
2023-03-27T01:54:26.155Z,7.30
2023-03-27T01:57:01.203Z,7.10
2023-03-27T01:59:28.922Z,7.00
2023-03-27T02:02:07.726Z,7.00
2023-03-27T02:04:48.939Z,7.10
2023-03-27T02:07:20.172Z,7.20
2023-03-27T02:09:50.081Z,7.00
2023-03-27T02:12:24.022Z,7.10
2023-03-27T02:15:23.289Z,6.90
2023-03-27T02:18:01.887Z,6.80
2023-03-27T02:20:28.933Z,6.80
2023-03-27T02:22:55.854Z,6.80
2023-03-27T02:25:33.888Z,6.80
2023-03-27T02:28:31.075Z,6.90
2023-03-27T02:31:34.132Z,7.10
2023-03-27T02:34:25.737Z,7.10
2023-03-27T02:37:06.397Z,7.50
2023-03-27T02:39:47.613Z,7.70
2023-03-27T02:42:28.676Z,7.30
2023-03-27T02:45:16.264Z,7.10
2023-03-27T02:47:50.954Z,7.20
2023-03-27T02:50:47.008Z,7.30
2023-03-27T02:53:14.845Z,7.30
2023-03-27T02:55:45.218Z,7.40
2023-03-27T02:58:16.681Z,7.40
2023-03-27T03:00:44.595Z,7.50
2023-03-27T03:03:38.294Z,7.40
2023-03-27T03:06:05.588Z,7.10
2023-03-27T03:08:34.995Z,7.10
2023-03-27T03:11:07.876Z,7.00
2023-03-27T03:13:34.765Z,6.80
2023-03-27T03:16:01.805Z,7.00
2023-03-27T03:18:28.686Z,7.10
2023-03-27T03:20:55.874Z,6.70
2023-03-27T03:23:23.100Z,6.60
2023-03-27T03:25:50.249Z,6.60
2023-03-27T03:28:17.094Z,6.80
2023-03-27T03:30:46.963Z,6.90
2023-03-27T03:33:13.955Z,6.90
2023-03-27T03:35:41.175Z,6.90
2023-03-27T03:38:08.122Z,6.90
2023-03-27T03:40:35.106Z,6.90
2023-03-27T03:43:01.983Z,6.70
2023-03-27T03:45:28.951Z,6.60
2023-03-27T03:47:55.915Z,6.50
2023-03-27T03:50:22.906Z,6.60
2023-03-27T03:52:49.775Z,6.60
2023-03-27T03:55:16.844Z,6.70
2023-03-27T03:57:46.791Z,6.30
2023-03-27T04:00:14.226Z,6.20
2023-03-27T04:02:41.232Z,6.00
2023-03-27T04:05:10.130Z,6.20
2023-03-27T04:07:37.681Z,6.30
2023-03-27T04:10:05.145Z,6.40
2023-03-27T04:12:32.425Z,6.90
2023-03-27T04:14:59.448Z,6.90
2023-03-27T04:17:26.568Z,6.80
2023-03-27T04:20:05.600Z,6.60
2023-03-27T04:22:32.826Z,6.80
2023-03-27T04:24:59.703Z,7.10
2023-03-27T04:27:26.583Z,7.50
2023-03-27T04:29:53.551Z,7.60
2023-03-27T04:32:20.534Z,7.50
2023-03-27T04:34:47.722Z,7.10
2023-03-27T04:37:14.680Z,7.40
2023-03-27T04:39:41.618Z,7.60
2023-03-27T04:42:09.570Z,7.80
2023-03-27T04:44:36.732Z,7.80
2023-03-27T04:47:06.350Z,7.80
2023-03-27T04:49:34.633Z,7.70
2023-03-27T04:52:01.590Z,7.80
2023-03-27T04:54:28.522Z,7.70
2023-03-27T04:56:55.374Z,7.80
2023-03-27T04:59:22.407Z,7.90
2023-03-27T05:01:49.280Z,7.90
2023-03-27T05:04:16.652Z,7.80
2023-03-27T05:06:43.585Z,7.60
2023-03-27T05:09:10.485Z,7.70
2023-03-27T05:11:37.439Z,7.70
2023-03-27T05:14:04.341Z,7.50
2023-03-27T05:16:31.226Z,7.50
2023-03-27T05:18:58.170Z,7.60
2023-03-27T05:21:25.069Z,7.40
2023-03-27T05:23:52.048Z,7.10
2023-03-27T05:26:18.991Z,6.90
2023-03-27T05:28:45.922Z,6.90
2023-03-27T05:31:12.832Z,7.00
2023-03-27T05:33:39.728Z,7.00
2023-03-27T05:36:07.255Z,7.00
2023-03-27T05:38:34.126Z,7.00
2023-03-27T05:41:01.014Z,7.10
2023-03-27T05:43:28.093Z,7.20
2023-03-27T05:45:55.035Z,7.30
2023-03-27T05:48:21.965Z,7.40
2023-03-27T05:50:48.967Z,7.60
2023-03-27T05:53:15.950Z,7.60
2023-03-27T05:55:42.912Z,7.60
2023-03-27T05:58:10.284Z,7.70
2023-03-27T06:00:37.936Z,7.70
2023-03-27T06:03:04.982Z,7.80
2023-03-27T06:05:32.130Z,7.80
2023-03-27T06:07:59.099Z,7.70
2023-03-27T06:10:29.869Z,8.00
2023-03-27T06:13:08.682Z,8.30
2023-03-27T06:15:39.184Z,8.50
2023-03-27T06:18:06.281Z,8.80
2023-03-27T06:20:33.233Z,8.80
2023-03-27T06:23:00.672Z,9.00
2023-03-27T06:25:28.886Z,9.10
2023-03-27T06:27:55.850Z,9.40
2023-03-27T06:30:24.015Z,9.70
2023-03-27T06:32:53.237Z,9.80
2023-03-27T06:35:21.047Z,10.00
2023-03-27T06:37:50.826Z,10.30
2023-03-27T06:40:23.320Z,10.50
2023-03-27T06:43:02.095Z,10.80
2023-03-27T06:45:43.135Z,11.10
2023-03-27T06:48:18.797Z,11.90
2023-03-27T06:50:49.052Z,13.70
2023-03-27T06:53:25.907Z,16.50
2023-03-27T06:55:54.018Z,17.10
2023-03-27T06:58:20.948Z,16.90
2023-03-27T07:00:48.070Z,18.60
2023-03-27T07:03:14.938Z,19.80
2023-03-27T07:05:41.928Z,21.40
2023-03-27T07:10:44.037Z,22.40
2023-03-27T07:13:10.975Z,23.00
2023-03-27T07:15:37.856Z,22.50
2023-03-27T07:18:06.413Z,24.00
2023-03-27T07:20:34.013Z,24.60
2023-03-27T07:23:01.350Z,24.90
2023-03-27T07:25:30.453Z,25.50
2023-03-27T07:28:00.649Z,26.40
2023-03-27T07:30:28.188Z,27.00
2023-03-27T07:32:55.196Z,27.10
2023-03-27T07:35:22.235Z,27.20
2023-03-27T07:37:49.177Z,27.60
2023-03-27T07:40:17.307Z,27.50
2023-03-27T07:42:45.645Z,26.30
2023-03-27T07:45:13.443Z,26.10
2023-03-27T07:47:42.100Z,25.20
2023-03-27T07:50:13.108Z,24.70
2023-03-27T07:52:40.218Z,25.20
2023-03-27T07:55:08.211Z,25.20
2023-03-27T07:57:59.307Z,25.60
2023-03-27T08:00:28.197Z,25.40
2023-03-27T08:03:08.351Z,25.90
2023-03-27T08:05:36.472Z,25.90
2023-03-27T08:08:03.978Z,25.50
2023-03-27T08:10:30.953Z,26.10
2023-03-27T08:12:57.896Z,26.90
2023-03-27T08:15:25.325Z,26.60
2023-03-27T08:17:52.818Z,26.70
2023-03-27T08:20:20.628Z,26.30
2023-03-27T08:22:47.526Z,26.50
2023-03-27T08:25:14.460Z,26.80
2023-03-27T08:27:41.405Z,26.40
2023-03-27T08:30:09.507Z,25.70
2023-03-27T08:32:36.422Z,25.90
2023-03-27T08:35:05.174Z,26.40
2023-03-27T08:37:32.160Z,26.70
2023-03-27T08:39:59.104Z,26.20
2023-03-27T08:42:36.450Z,26.00
2023-03-27T08:45:19.705Z,25.50
2023-03-27T08:47:52.105Z,25.40
2023-03-27T08:50:34.287Z,26.20
2023-03-27T08:53:01.474Z,25.90
2023-03-27T08:55:42.013Z,25.90
2023-03-27T08:58:20.163Z,26.00
2023-03-27T09:01:02.819Z,25.80
2023-03-27T09:04:13.281Z,25.70
2023-03-27T09:07:01.390Z,25.70
2023-03-27T09:10:05.664Z,25.40
2023-03-27T09:13:06.281Z,25.00
2023-03-27T09:15:36.969Z,24.60
2023-03-27T09:18:35.639Z,25.10
2023-03-27T09:21:36.046Z,24.60
2023-03-27T09:24:06.411Z,24.30
2023-03-27T09:26:35.877Z,23.70
2023-03-27T09:29:19.974Z,23.70
2023-03-27T09:31:50.946Z,23.60
2023-03-27T09:34:30.809Z,23.90
2023-03-27T09:37:00.894Z,24.00
2023-03-27T09:39:33.215Z,23.80
2023-03-27T09:42:22.598Z,23.60
2023-03-27T09:44:56.281Z,23.30
2023-03-27T09:48:04.725Z,22.70
2023-03-27T09:50:45.726Z,22.40
2023-03-27T09:53:17.929Z,22.20
2023-03-27T09:55:59.297Z,22.20
2023-03-27T09:58:26.872Z,21.70
2023-03-27T10:01:16.872Z,21.50
2023-03-27T10:03:51.450Z,21.30
2023-03-27T10:06:36.798Z,20.90
2023-03-27T10:09:19.529Z,20.90
2023-03-27T10:11:46.525Z,20.70
2023-03-27T10:14:16.614Z,20.70
2023-03-27T10:16:43.592Z,20.60
2023-03-27T10:19:29.586Z,20.80
2023-03-27T10:21:56.756Z,20.80
2023-03-27T10:24:35.597Z,20.50
2023-03-27T10:27:07.930Z,20.90
2023-03-27T10:29:36.768Z,20.90
2023-03-27T10:32:05.676Z,20.80
2023-03-27T10:34:58.966Z,20.80
2023-03-27T10:37:31.251Z,20.80
2023-03-27T10:40:01.112Z,21.00
2023-03-27T10:42:30.061Z,20.90
2023-03-27T10:44:57.088Z,21.00
2023-03-27T10:47:30.494Z,21.10
2023-03-27T10:50:14.987Z,21.00
2023-03-27T10:53:06.046Z,21.20
2023-03-27T10:55:37.908Z,21.10
2023-03-27T10:58:22.941Z,21.10
2023-03-27T11:01:08.728Z,21.30
2023-03-27T11:03:55.061Z,21.40
2023-03-27T11:06:22.373Z,21.30
2023-03-27T11:09:25.964Z,21.40
2023-03-27T11:11:58.257Z,21.30
2023-03-27T11:14:32.178Z,21.50
2023-03-27T11:17:00.541Z,21.40
2023-03-27T11:19:53.330Z,20.90
2023-03-27T11:22:45.952Z,20.90
2023-03-27T11:25:42.145Z,20.90
2023-03-27T11:28:56.483Z,20.80
2023-03-27T11:31:42.802Z,20.50
2023-03-27T11:35:02.027Z,20.60
2023-03-27T11:37:39.456Z,20.60
2023-03-27T11:40:24.546Z,20.70
2023-03-27T11:42:51.496Z,20.60
2023-03-27T11:45:23.231Z,20.60
2023-03-27T11:48:11.381Z,20.30
2023-03-27T11:50:53.357Z,20.20
2023-03-27T11:53:29.831Z,20.10
2023-03-27T11:56:09.559Z,20.40
2023-03-27T11:59:37.534Z,20.50
2023-03-27T12:02:28.864Z,20.40
2023-03-27T12:05:20.160Z,20.50
2023-03-27T12:08:22.642Z,20.30
2023-03-27T12:10:49.884Z,20.10
2023-03-27T12:14:01.056Z,20.10
2023-03-27T12:16:36.955Z,20.00
2023-03-27T12:19:38.230Z,19.90
2023-03-27T12:22:22.858Z,20.00
2023-03-27T12:25:28.708Z,20.00
2023-03-27T12:28:41.141Z,19.70
2023-03-27T12:31:48.073Z,19.70
2023-03-27T12:34:52.159Z,19.60
2023-03-27T12:40:00.885Z,19.60
2023-03-27T12:42:48.987Z,19.50
2023-03-27T12:45:23.241Z,19.60
2023-03-27T12:48:09.114Z,19.50
2023-03-27T12:50:45.045Z,19.50
2023-03-27T12:53:27.186Z,19.40
2023-03-27T12:56:19.015Z,19.60
2023-03-27T12:58:47.914Z,19.30
2023-03-27T13:01:51.805Z,19.40
2023-03-27T13:05:27.499Z,19.20
2023-03-27T13:08:18.566Z,19.30
2023-03-27T13:11:09.928Z,19.30
2023-03-27T13:14:10.693Z,19.30
2023-03-27T13:17:11.014Z,19.40
2023-03-27T13:19:53.447Z,19.20
2023-03-27T13:22:52.984Z,19.30
2023-03-27T13:25:34.646Z,19.30
2023-03-27T13:28:37.122Z,19.40
2023-03-27T13:31:06.703Z,19.40
2023-03-27T13:33:33.553Z,19.30
2023-03-27T13:36:21.670Z,19.30
2023-03-27T13:38:51.398Z,19.30
2023-03-27T13:41:40.053Z,19.40
2023-03-27T13:44:26.534Z,19.40
2023-03-27T13:47:02.795Z,19.50
2023-03-27T13:50:14.735Z,19.30
2023-03-27T13:53:12.219Z,19.40
2023-03-27T13:55:54.246Z,19.50
2023-03-27T13:59:19.710Z,19.40
2023-03-27T14:02:06.560Z,19.30
2023-03-27T14:04:52.393Z,19.10
2023-03-27T14:07:54.392Z,19.10
2023-03-27T14:11:03.878Z,19.20
2023-03-27T14:13:54.023Z,19.40
2023-03-27T14:16:29.790Z,19.40
2023-03-27T14:19:35.142Z,19.30
2023-03-27T14:22:45.131Z,19.10
2023-03-27T14:25:21.300Z,18.80
2023-03-27T14:27:54.325Z,18.90
2023-03-27T14:30:24.048Z,19.00
2023-03-27T14:32:50.984Z,18.90
2023-03-27T14:35:40.317Z,19.10
2023-03-27T14:38:28.973Z,19.00
2023-03-27T14:41:06.608Z,18.90
2023-03-27T14:43:33.853Z,18.80
2023-03-27T14:46:03.907Z,18.80
2023-03-27T14:48:38.983Z,18.80
2023-03-27T14:51:17.602Z,18.70
2023-03-27T14:53:45.287Z,18.70
2023-03-27T14:56:41.433Z,18.60
2023-03-27T14:59:25.237Z,18.70
2023-03-27T15:01:54.356Z,18.70
2023-03-27T15:04:21.285Z,18.50
2023-03-27T15:06:48.185Z,18.40
2023-03-27T15:09:17.312Z,18.50
2023-03-27T15:11:48.204Z,18.50
2023-03-27T15:14:24.216Z,18.50
2023-03-27T15:16:57.260Z,18.60
2023-03-27T15:19:36.469Z,18.50
2023-03-27T15:22:06.796Z,18.40
2023-03-27T15:24:40.719Z,18.30
2023-03-27T15:27:13.153Z,18.30
2023-03-27T15:29:46.913Z,18.30
2023-03-27T15:32:15.727Z,18.10
2023-03-27T15:34:44.836Z,18.00
2023-03-27T15:37:19.279Z,17.90
2023-03-27T15:40:23.001Z,17.90
2023-03-27T15:42:54.498Z,17.80
2023-03-27T15:45:36.873Z,17.70
2023-03-27T15:48:18.085Z,17.50
2023-03-27T15:51:05.721Z,17.30
2023-03-27T15:53:40.264Z,17.30
2023-03-27T15:56:41.882Z,17.40
2023-03-27T15:59:11.078Z,17.30
2023-03-27T16:01:40.379Z,17.30
2023-03-27T16:04:15.214Z,17.10
2023-03-27T16:06:47.551Z,17.20
2023-03-27T16:09:32.467Z,17.00
2023-03-27T16:11:59.647Z,16.70
2023-03-27T16:14:44.075Z,16.70
2023-03-27T16:17:14.084Z,16.70
2023-03-27T16:20:02.768Z,16.70
2023-03-27T16:22:36.691Z,16.50
2023-03-27T16:25:11.367Z,16.40
2023-03-27T16:27:49.641Z,16.40
2023-03-27T16:30:37.060Z,16.40
2023-03-27T16:33:15.339Z,16.30
2023-03-27T16:35:42.880Z,16.20
2023-03-27T16:38:09.829Z,16.30
2023-03-27T16:40:36.738Z,16.30
2023-03-27T16:43:03.630Z,16.20
2023-03-27T16:45:30.553Z,16.10
2023-03-27T16:47:57.487Z,16.10
2023-03-27T16:50:25.612Z,16.10
2023-03-27T16:52:52.799Z,16.00
2023-03-27T16:55:19.836Z,15.80
2023-03-27T16:57:46.897Z,15.80
2023-03-27T17:00:15.276Z,15.80
2023-03-27T17:02:42.279Z,15.70
2023-03-27T17:05:09.669Z,15.50
2023-03-27T17:07:36.603Z,15.30
2023-03-27T17:10:04.071Z,15.30
2023-03-27T17:12:30.930Z,15.40
2023-03-27T17:14:57.848Z,15.50
2023-03-27T17:17:24.744Z,15.30
2023-03-27T17:19:51.669Z,15.10
2023-03-27T17:22:18.626Z,14.90
2023-03-27T17:24:56.209Z,14.80
2023-03-27T17:27:25.042Z,14.60
2023-03-27T17:29:51.990Z,14.50
2023-03-27T17:32:18.895Z,14.30
2023-03-27T17:34:45.841Z,14.30
2023-03-27T17:37:12.772Z,14.20
2023-03-27T17:39:39.806Z,14.10
2023-03-27T17:42:06.870Z,14.10
2023-03-27T17:44:33.847Z,14.00
2023-03-27T17:47:00.997Z,14.00
2023-03-27T17:49:28.100Z,13.70
2023-03-27T17:51:55.075Z,13.60
2023-03-27T17:54:21.988Z,13.50
2023-03-27T17:56:49.055Z,13.40
2023-03-27T17:59:16.038Z,13.40
2023-03-27T18:01:45.310Z,13.30
2023-03-27T18:04:12.432Z,13.30
2023-03-27T18:06:39.401Z,13.20
2023-03-27T18:09:06.470Z,13.10
2023-03-27T18:11:33.402Z,13.00
2023-03-27T18:14:00.384Z,13.00
2023-03-27T18:16:27.486Z,13.00
2023-03-27T18:18:54.489Z,13.00
2023-03-27T18:21:21.811Z,12.90
2023-03-27T18:23:48.825Z,12.80
2023-03-27T18:26:16.016Z,12.80
2023-03-27T18:28:43.014Z,12.80
2023-03-27T18:31:11.430Z,12.70
2023-03-27T18:33:38.526Z,12.70
2023-03-27T18:36:06.257Z,12.80
2023-03-27T18:38:33.277Z,12.70
2023-03-27T18:41:00.397Z,12.80
2023-03-27T18:43:27.619Z,12.80
2023-03-27T18:45:59.282Z,12.70
2023-03-27T18:48:26.840Z,12.60
2023-03-27T18:51:01.962Z,12.50
2023-03-27T18:53:29.303Z,12.40
2023-03-27T18:55:56.489Z,12.40
2023-03-27T18:58:23.636Z,12.40
2023-03-27T19:00:51.249Z,12.30
2023-03-27T19:03:20.090Z,12.20
2023-03-27T19:05:50.648Z,12.20
2023-03-27T19:08:19.022Z,12.20
2023-03-27T19:10:46.039Z,12.20
2023-03-27T19:13:13.094Z,12.40
2023-03-27T19:15:40.470Z,12.40
2023-03-27T19:18:07.560Z,12.20
2023-03-27T19:20:34.607Z,12.00
2023-03-27T19:23:01.649Z,12.00
2023-03-27T19:25:28.686Z,11.80
2023-03-27T19:27:56.604Z,11.80
2023-03-27T19:30:24.033Z,11.70
2023-03-27T19:32:51.292Z,11.70
2023-03-27T19:35:18.433Z,11.70
2023-03-27T19:37:45.652Z,11.70
2023-03-27T19:40:13.601Z,11.70
2023-03-27T19:42:40.581Z,11.60
2023-03-27T19:45:08.389Z,11.70
2023-03-27T19:47:35.788Z,11.70
2023-03-27T19:50:03.056Z,11.80
2023-03-27T19:52:30.324Z,11.90
2023-03-27T19:54:57.322Z,11.80
2023-03-27T19:57:24.462Z,12.00
2023-03-27T19:59:51.544Z,12.00
2023-03-27T20:02:18.589Z,12.10
2023-03-27T20:04:45.585Z,12.10
2023-03-27T20:07:12.515Z,12.20
2023-03-27T20:09:39.472Z,12.10
2023-03-27T20:12:07.292Z,12.20
2023-03-27T20:14:34.352Z,12.20
2023-03-27T20:17:01.339Z,12.10
2023-03-27T20:19:28.396Z,12.10
2023-03-27T20:21:55.444Z,12.10
2023-03-27T20:24:22.460Z,12.10
2023-03-27T20:26:50.940Z,12.10
2023-03-27T20:29:20.416Z,12.00
2023-03-27T20:31:47.784Z,11.90
2023-03-27T20:34:14.996Z,12.00
2023-03-27T20:36:41.965Z,11.90
2023-03-27T20:39:09.085Z,11.80
2023-03-27T20:41:36.432Z,11.80
2023-03-27T20:44:03.573Z,11.70
2023-03-27T20:46:30.731Z,11.70
2023-03-27T20:48:57.862Z,11.50
2023-03-27T20:51:25.116Z,11.50
2023-03-27T20:53:52.277Z,11.50
2023-03-27T20:56:19.261Z,11.50
2023-03-27T20:58:46.222Z,11.40
2023-03-27T21:01:13.320Z,11.50
2023-03-27T21:03:41.926Z,11.50
2023-03-27T21:06:19.849Z,11.60
2023-03-27T21:08:47.390Z,11.50
2023-03-27T21:11:14.568Z,11.50
2023-03-27T21:13:41.599Z,11.50
2023-03-27T21:16:08.874Z,11.50
2023-03-27T21:18:35.930Z,11.50
2023-03-27T21:21:03.015Z,11.40
2023-03-27T21:23:30.059Z,11.40
2023-03-27T21:25:57.800Z,11.30
2023-03-27T21:28:24.931Z,11.40
2023-03-27T21:30:52.145Z,11.40
2023-03-27T21:33:19.125Z,11.40
2023-03-27T21:35:47.271Z,11.20
2023-03-27T21:38:15.121Z,11.30
2023-03-27T21:40:42.155Z,11.40
2023-03-27T21:43:09.172Z,11.20
2023-03-27T21:45:36.599Z,11.10
2023-03-27T21:48:03.911Z,10.90
2023-03-27T21:50:31.082Z,10.80
2023-03-27T21:52:58.171Z,10.80
2023-03-27T21:55:25.063Z,10.80
2023-03-27T21:57:52.015Z,10.80
2023-03-27T22:00:19.510Z,10.70
2023-03-27T22:02:46.659Z,10.70
2023-03-27T22:05:13.714Z,10.70
2023-03-27T22:07:40.701Z,10.80
2023-03-27T22:10:08.225Z,11.00
2023-03-27T22:12:36.540Z,11.10
2023-03-27T22:15:04.555Z,11.00
2023-03-27T22:17:31.588Z,10.90
2023-03-27T22:19:58.600Z,10.80
2023-03-27T22:22:25.607Z,10.80
2023-03-27T22:24:52.579Z,10.90
2023-03-27T22:27:21.625Z,10.80
2023-03-27T22:29:48.592Z,10.60
2023-03-27T22:32:15.619Z,10.40
2023-03-27T22:34:42.581Z,10.30
2023-03-27T22:37:09.520Z,10.40
2023-03-27T22:39:36.507Z,10.50
2023-03-27T22:42:03.588Z,10.60
2023-03-27T22:44:30.704Z,10.50
2023-03-27T22:46:58.947Z,10.60
2023-03-27T22:49:26.446Z,10.60
2023-03-27T22:51:53.465Z,10.50
2023-03-27T22:54:20.511Z,10.60
2023-03-27T22:56:47.628Z,10.50
2023-03-27T22:59:14.877Z,10.40
2023-03-27T23:01:41.960Z,10.50
2023-03-27T23:04:09.099Z,10.50
2023-03-27T23:06:36.123Z,10.50
2023-03-27T23:09:03.425Z,10.60
2023-03-27T23:11:30.438Z,10.50
2023-03-27T23:13:57.384Z,10.50
2023-03-27T23:16:24.481Z,10.50
2023-03-27T23:18:51.416Z,10.30
2023-03-27T23:21:18.637Z,9.80
2023-03-27T23:23:45.655Z,9.40
2023-03-27T23:26:12.682Z,9.30
2023-03-27T23:28:41.278Z,9.20
2023-03-27T23:31:15.591Z,9.20
2023-03-27T23:33:45.099Z,9.30
2023-03-27T23:36:23.205Z,9.40
2023-03-27T23:38:50.796Z,9.30
2023-03-27T23:41:17.962Z,9.30
2023-03-27T23:43:44.990Z,9.40
2023-03-27T23:46:12.224Z,9.00
2023-03-27T23:48:40.641Z,9.00
2023-03-27T23:51:07.946Z,8.80
2023-03-27T23:53:35.003Z,8.60
2023-03-27T23:56:02.304Z,8.50
2023-03-27T23:58:29.948Z,8.50
